createdAt,value
2018-07-03T00:01:14.908Z,37.40
2018-07-03T00:03:43.212Z,37.70
2018-07-03T00:08:39.798Z,37.60
2018-07-03T00:11:08.200Z,37.50
2018-07-03T00:13:36.556Z,37.80
2018-07-03T00:16:04.963Z,38.80
2018-07-03T00:18:33.485Z,39.10
2018-07-03T00:21:01.849Z,39.30
2018-07-03T00:23:30.361Z,39.30
2018-07-03T00:25:59.367Z,39.70
2018-07-03T00:30:55.930Z,39.50
2018-07-03T00:33:24.454Z,39.40
2018-07-03T00:35:53.056Z,39.40
2018-07-03T00:38:21.603Z,39.30
2018-07-03T00:40:50.010Z,39.70
2018-07-03T00:43:18.606Z,39.70
2018-07-03T00:45:47.094Z,39.90
2018-07-03T00:48:15.600Z,40.30
2018-07-03T00:50:43.881Z,40.30
2018-07-03T00:53:12.348Z,40.90
2018-07-03T00:55:40.849Z,41.20
2018-07-03T00:58:09.213Z,41.70
2018-07-03T01:00:37.553Z,41.70
2018-07-03T01:03:06.656Z,41.90
2018-07-03T01:05:35.029Z,42.70
2018-07-03T01:10:32.021Z,42.50
2018-07-03T01:13:00.399Z,42.80
2018-07-03T01:15:28.962Z,42.80
2018-07-03T01:17:57.372Z,42.50
2018-07-03T01:20:25.709Z,43.00
2018-07-03T01:22:54.159Z,43.30
2018-07-03T01:25:22.577Z,43.30
2018-07-03T01:27:50.948Z,43.10
2018-07-03T01:30:20.007Z,43.00
2018-07-03T01:32:48.248Z,43.30
2018-07-03T01:35:16.599Z,43.50
2018-07-03T01:37:44.975Z,43.40
2018-07-03T01:40:13.339Z,43.80
2018-07-03T01:42:41.665Z,44.20
2018-07-03T01:45:10.028Z,44.10
2018-07-03T01:47:38.456Z,44.20
2018-07-03T01:50:06.850Z,44.80
2018-07-03T01:52:35.159Z,44.70
2018-07-03T01:55:04.397Z,44.80
2018-07-03T01:57:32.783Z,44.70
2018-07-03T02:00:01.151Z,45.10
2018-07-03T02:02:30.052Z,45.00
2018-07-03T02:04:58.398Z,44.90
2018-07-03T02:07:26.739Z,44.30
2018-07-03T02:09:55.125Z,44.50
2018-07-03T02:12:23.444Z,45.10
2018-07-03T02:14:51.819Z,46.70
2018-07-03T02:17:20.161Z,45.80
2018-07-03T02:19:48.633Z,47.70
2018-07-03T02:22:17.139Z,47.40
2018-07-03T02:24:45.451Z,47.30
2018-07-03T02:27:13.901Z,49.30
2018-07-03T02:29:42.201Z,49.30
2018-07-03T02:32:10.548Z,48.50
2018-07-03T02:34:38.993Z,49.30
2018-07-03T02:37:07.368Z,48.30
2018-07-03T02:39:35.727Z,49.90
2018-07-03T02:42:04.088Z,49.90
2018-07-03T02:44:33.118Z,48.80
2018-07-03T02:47:01.439Z,47.90
2018-07-03T02:49:29.837Z,48.00
2018-07-03T02:51:58.267Z,47.40
2018-07-03T02:54:26.675Z,47.20
2018-07-03T02:56:55.000Z,47.00
2018-07-03T02:59:23.927Z,47.30
2018-07-03T03:01:52.258Z,47.40
2018-07-03T03:04:20.638Z,47.20
2018-07-03T03:06:48.965Z,47.00
2018-07-03T03:09:17.407Z,47.00
2018-07-03T03:11:47.821Z,47.20
2018-07-03T03:14:17.088Z,47.10
2018-07-03T03:16:45.786Z,47.00
2018-07-03T03:19:14.424Z,47.20
2018-07-03T03:21:42.720Z,47.80
2018-07-03T03:24:11.017Z,47.90
2018-07-03T03:26:39.319Z,48.10
2018-07-03T03:29:07.713Z,48.40
2018-07-03T03:31:36.063Z,48.20
2018-07-03T03:34:04.451Z,47.70
2018-07-03T03:36:32.818Z,47.60
2018-07-03T03:39:01.152Z,47.30
2018-07-03T03:41:29.572Z,48.00
2018-07-03T03:43:57.939Z,47.70
2018-07-03T03:46:27.325Z,47.80
2018-07-03T03:48:55.670Z,48.20
2018-07-03T03:51:24.003Z,48.00
2018-07-03T03:53:52.311Z,48.10
2018-07-03T03:56:21.646Z,48.50
2018-07-03T03:58:49.991Z,48.70
2018-07-03T04:01:18.263Z,48.50
2018-07-03T04:03:46.522Z,48.40
2018-07-03T04:06:15.115Z,48.90
2018-07-03T04:08:43.570Z,48.90
2018-07-03T04:11:11.947Z,48.70
2018-07-03T04:13:40.300Z,49.20
2018-07-03T04:16:08.731Z,49.50
2018-07-03T04:18:37.027Z,49.50
2018-07-03T04:21:07.423Z,49.70
2018-07-03T04:23:36.802Z,49.90
2018-07-03T04:26:05.189Z,49.20
2018-07-03T04:28:34.052Z,48.80
2018-07-03T04:31:02.956Z,49.00
2018-07-03T04:33:31.348Z,49.20
2018-07-03T04:36:00.027Z,49.40
2018-07-03T04:38:28.432Z,49.30
2018-07-03T04:40:56.768Z,49.10
2018-07-03T04:43:25.147Z,49.30
2018-07-03T04:45:53.703Z,49.60
2018-07-03T04:48:22.061Z,50.10
2018-07-03T04:50:50.423Z,50.50
2018-07-03T04:53:18.949Z,50.60
2018-07-03T04:55:47.343Z,50.50
2018-07-03T04:58:15.707Z,50.10
2018-07-03T05:00:44.074Z,49.90
2018-07-03T05:03:12.427Z,49.60
2018-07-03T05:05:40.791Z,49.80
2018-07-03T05:08:09.174Z,50.50
2018-07-03T05:10:37.576Z,50.10
2018-07-03T05:13:05.906Z,50.00
2018-07-03T05:15:34.197Z,50.70
2018-07-03T05:18:02.776Z,50.90
2018-07-03T05:20:31.932Z,51.30
2018-07-03T05:23:02.439Z,50.80
2018-07-03T05:25:30.852Z,50.30
2018-07-03T05:27:59.238Z,50.30
2018-07-03T05:30:27.502Z,49.10
2018-07-03T05:32:55.874Z,46.70
2018-07-03T05:35:24.246Z,47.00
2018-07-03T05:37:52.611Z,45.40
2018-07-03T05:40:21.040Z,45.70
2018-07-03T05:42:49.442Z,45.20
2018-07-03T05:45:17.733Z,44.60
2018-07-03T05:47:46.076Z,45.20
2018-07-03T05:50:14.503Z,45.10
2018-07-03T05:52:42.887Z,45.20
2018-07-03T05:55:11.257Z,45.30
2018-07-03T05:57:39.785Z,44.10
2018-07-03T06:00:08.410Z,43.30
2018-07-03T06:02:36.814Z,43.00
2018-07-03T06:05:05.272Z,41.60
2018-07-03T06:07:33.793Z,41.30
2018-07-03T06:10:02.282Z,41.50
2018-07-03T06:12:30.871Z,41.70
2018-07-03T06:14:59.324Z,41.10
2018-07-03T06:17:27.756Z,39.00
2018-07-03T06:19:56.139Z,38.50
2018-07-03T06:22:24.711Z,38.60
2018-07-03T06:24:53.183Z,39.00
2018-07-03T06:27:21.926Z,37.40
2018-07-03T06:29:50.532Z,37.00
2018-07-03T06:32:19.310Z,37.20
2018-07-03T06:34:47.832Z,38.40
2018-07-03T06:37:16.438Z,36.90
2018-07-03T06:39:45.002Z,36.70
2018-07-03T06:42:14.217Z,36.20
2018-07-03T06:44:42.635Z,36.10
2018-07-03T06:47:11.283Z,36.40
2018-07-03T06:49:39.901Z,36.20
2018-07-03T06:52:08.424Z,36.30
2018-07-03T06:54:37.241Z,36.20
2018-07-03T06:57:05.828Z,36.00
2018-07-03T06:59:34.419Z,35.90
2018-07-03T07:02:02.912Z,36.00
2018-07-03T07:04:31.784Z,36.90
2018-07-03T07:07:01.002Z,36.50
2018-07-03T07:09:30.478Z,36.20
2018-07-03T07:11:59.335Z,35.90
2018-07-03T07:14:28.827Z,35.70
2018-07-03T07:16:57.353Z,36.60
2018-07-03T07:19:25.875Z,35.20
2018-07-03T07:21:54.789Z,35.70
2018-07-03T07:24:24.030Z,34.90
2018-07-03T07:26:53.101Z,34.70
2018-07-03T07:29:22.082Z,34.60
2018-07-03T07:31:51.187Z,35.30
2018-07-03T07:34:20.897Z,34.80
2018-07-03T07:36:49.332Z,34.80
2018-07-03T07:39:18.178Z,34.60
2018-07-03T07:41:46.585Z,34.90
2018-07-03T07:44:15.020Z,34.10
2018-07-03T07:46:43.882Z,35.20
2018-07-03T07:49:12.319Z,34.50
2018-07-03T07:51:40.818Z,34.60
2018-07-03T07:54:09.548Z,34.60
2018-07-03T07:56:38.054Z,34.70
2018-07-03T07:59:06.501Z,35.30
2018-07-03T08:01:35.636Z,34.40
2018-07-03T08:04:04.030Z,34.30
2018-07-03T08:06:32.423Z,35.00
2018-07-03T08:09:01.236Z,34.10
2018-07-03T08:11:30.178Z,34.40
2018-07-03T08:13:58.584Z,34.20
2018-07-03T08:16:26.955Z,34.10
2018-07-03T08:21:24.059Z,34.00
2018-07-03T08:23:52.817Z,33.40
2018-07-03T08:26:21.743Z,33.80
2018-07-03T08:28:50.217Z,34.50
2018-07-03T08:31:18.677Z,33.70
2018-07-03T08:36:15.408Z,33.70
2018-07-03T08:38:43.854Z,33.00
2018-07-03T08:41:12.452Z,32.80
2018-07-03T08:43:40.725Z,33.10
2018-07-03T08:46:09.377Z,33.70
2018-07-03T08:48:37.679Z,33.90
2018-07-03T08:51:06.168Z,34.10
2018-07-03T08:53:34.475Z,33.90
2018-07-03T08:56:02.864Z,33.20
2018-07-03T08:58:31.306Z,33.10
2018-07-03T09:00:59.727Z,33.50
2018-07-03T09:03:28.212Z,33.10
2018-07-03T09:05:57.632Z,33.10
2018-07-03T09:08:26.405Z,32.10
2018-07-03T09:10:54.823Z,31.90
2018-07-03T09:13:23.304Z,32.50
2018-07-03T09:15:51.773Z,31.90
2018-07-03T09:18:20.387Z,31.40
2018-07-03T09:20:48.772Z,31.00
2018-07-03T09:23:17.580Z,30.30
2018-07-03T09:25:46.552Z,30.10
2018-07-03T09:28:15.313Z,30.80
2018-07-03T09:30:43.834Z,29.40
2018-07-03T09:33:12.173Z,28.30
2018-07-03T09:35:40.571Z,27.00
2018-07-03T09:38:08.956Z,27.40
2018-07-03T09:40:37.983Z,27.20
2018-07-03T09:43:06.388Z,27.40
2018-07-03T09:45:34.787Z,26.80
2018-07-03T09:48:03.557Z,26.20
2018-07-03T09:50:32.362Z,25.70
2018-07-03T09:53:00.734Z,25.70
2018-07-03T09:55:29.103Z,25.10
2018-07-03T09:57:58.268Z,24.80
2018-07-03T10:00:33.236Z,24.30
2018-07-03T10:03:01.636Z,23.30
2018-07-03T10:05:29.935Z,23.00
2018-07-03T10:10:27.224Z,23.00
2018-07-03T10:12:55.684Z,22.80
2018-07-03T10:15:24.130Z,23.20
2018-07-03T10:17:52.466Z,23.90
2018-07-03T10:20:21.321Z,24.50
2018-07-03T10:22:49.794Z,24.80
2018-07-03T10:25:18.257Z,24.80
2018-07-03T10:27:46.689Z,25.00
2018-07-03T10:30:15.238Z,25.40
2018-07-03T10:32:43.812Z,26.00
2018-07-03T10:35:12.206Z,26.60
2018-07-03T10:37:40.587Z,26.50
2018-07-03T10:40:08.997Z,26.50
2018-07-03T10:42:37.991Z,26.80
2018-07-03T10:45:06.393Z,27.30
2018-07-03T10:47:34.866Z,27.50
2018-07-03T10:50:03.862Z,27.60
2018-07-03T10:52:32.278Z,27.20
2018-07-03T10:55:01.285Z,27.00
2018-07-03T10:57:30.890Z,27.20
2018-07-03T10:59:59.980Z,28.50
2018-07-03T11:02:28.350Z,28.30
2018-07-03T11:04:58.074Z,28.70
2018-07-03T11:07:26.448Z,28.40
2018-07-03T11:09:55.579Z,28.30
2018-07-03T11:12:23.986Z,27.60
2018-07-03T11:14:52.377Z,26.80
2018-07-03T11:17:20.841Z,26.70
2018-07-03T11:19:49.269Z,27.40
2018-07-03T11:22:17.647Z,27.20
2018-07-03T11:24:46.211Z,27.30
2018-07-03T11:27:14.555Z,27.20
2018-07-03T11:29:43.241Z,27.50
2018-07-03T11:32:11.801Z,27.50
2018-07-03T11:34:40.141Z,27.10
2018-07-03T11:37:08.483Z,27.10
2018-07-03T11:39:37.182Z,27.30
2018-07-03T11:42:05.482Z,26.60
2018-07-03T11:44:33.837Z,27.10
2018-07-03T11:47:02.497Z,27.20
2018-07-03T11:49:30.953Z,27.10
2018-07-03T11:51:59.287Z,27.20
2018-07-03T11:54:27.711Z,27.30
2018-07-03T11:56:56.124Z,27.60
2018-07-03T11:59:24.581Z,26.80
2018-07-03T12:01:52.911Z,26.40
2018-07-03T12:04:21.276Z,25.70
2018-07-03T12:06:49.747Z,26.00
2018-07-03T12:09:18.710Z,26.40
2018-07-03T12:11:47.162Z,26.70
2018-07-03T12:14:15.712Z,26.70
2018-07-03T12:16:44.330Z,26.90
2018-07-03T12:19:13.203Z,27.60
2018-07-03T12:21:42.255Z,27.00
2018-07-03T12:24:11.334Z,26.10
2018-07-03T12:26:40.454Z,25.80
2018-07-03T12:29:09.266Z,26.00
2018-07-03T12:31:37.845Z,26.20
2018-07-03T12:34:06.188Z,25.80
2018-07-03T12:36:34.565Z,25.30
2018-07-03T12:39:04.650Z,25.50
2018-07-03T12:41:33.637Z,26.30
2018-07-03T12:44:02.903Z,26.40
2018-07-03T12:46:32.344Z,26.30
2018-07-03T12:49:00.889Z,25.80
2018-07-03T12:51:29.363Z,26.20
2018-07-03T12:53:58.319Z,25.50
2018-07-03T12:56:26.753Z,25.30
2018-07-03T12:58:55.660Z,25.70
2018-07-03T13:01:24.073Z,26.10
2018-07-03T13:03:52.648Z,24.90
2018-07-03T13:06:21.152Z,24.40
2018-07-03T13:08:49.577Z,24.50
2018-07-03T13:11:17.926Z,25.10
2018-07-03T13:13:47.926Z,26.50
2018-07-03T13:16:16.854Z,24.70
2018-07-03T13:18:45.356Z,25.00
2018-07-03T13:21:13.889Z,24.80
2018-07-03T13:23:42.660Z,25.10
2018-07-03T13:26:11.578Z,25.00
2018-07-03T13:28:40.201Z,25.10
2018-07-03T13:31:09.564Z,25.50
2018-07-03T13:33:37.935Z,24.10
2018-07-03T13:36:06.370Z,24.70
2018-07-03T13:38:35.592Z,24.60
2018-07-03T13:41:04.660Z,23.70
2018-07-03T13:43:33.285Z,23.40
2018-07-03T13:46:02.863Z,23.60
2018-07-03T13:48:31.498Z,23.20
2018-07-03T13:51:01.074Z,23.10
2018-07-03T13:53:29.612Z,23.20
2018-07-03T13:55:57.949Z,23.00
2018-07-03T13:58:26.610Z,24.00
2018-07-03T14:00:55.055Z,25.00
2018-07-03T14:03:23.418Z,25.40
2018-07-03T14:05:51.858Z,24.90
2018-07-03T14:08:20.196Z,23.70
2018-07-03T14:10:48.583Z,23.40
2018-07-03T14:13:17.109Z,23.60
2018-07-03T14:15:46.113Z,23.70
2018-07-03T14:18:14.553Z,23.70
2018-07-03T14:20:43.011Z,23.40
2018-07-03T14:23:11.760Z,23.40
2018-07-03T14:25:40.240Z,24.00
2018-07-03T14:28:08.593Z,24.20
2018-07-03T14:30:37.019Z,24.40
2018-07-03T14:33:05.486Z,25.20
2018-07-03T14:35:33.898Z,25.00
2018-07-03T14:38:02.349Z,24.20
2018-07-03T14:40:30.803Z,24.30
2018-07-03T14:42:59.128Z,25.00
2018-07-03T14:45:27.854Z,25.70
2018-07-03T14:47:56.341Z,24.10
2018-07-03T14:50:24.764Z,23.50
2018-07-03T14:52:53.379Z,24.60
2018-07-03T14:55:21.716Z,24.50
2018-07-03T14:57:50.125Z,23.30
2018-07-03T15:00:18.555Z,23.60
2018-07-03T15:02:47.032Z,24.70
2018-07-03T15:05:15.344Z,25.30
2018-07-03T15:07:43.704Z,24.60
2018-07-03T15:10:12.555Z,24.10
2018-07-03T15:12:41.093Z,23.60
2018-07-03T15:15:09.502Z,23.50
2018-07-03T15:17:38.477Z,23.80
2018-07-03T15:20:06.872Z,24.70
2018-07-03T15:22:35.227Z,23.50
2018-07-03T15:25:03.785Z,23.40
2018-07-03T15:27:32.147Z,23.70
2018-07-03T15:30:00.528Z,26.30
2018-07-03T15:32:29.082Z,25.20
2018-07-03T15:34:57.564Z,25.40
2018-07-03T15:37:25.961Z,25.90
2018-07-03T15:39:54.382Z,26.20
2018-07-03T15:42:22.753Z,26.00
2018-07-03T15:45:01.011Z,26.00
2018-07-03T15:47:29.696Z,25.40
2018-07-03T15:49:58.128Z,24.80
2018-07-03T15:52:26.998Z,24.60
2018-07-03T15:54:55.481Z,25.60
2018-07-03T15:57:23.914Z,26.10
2018-07-03T15:59:52.606Z,25.50
2018-07-03T16:02:21.131Z,26.10
2018-07-03T16:05:11.766Z,25.40
2018-07-03T16:10:00.090Z,25.50
2018-07-03T16:12:28.469Z,25.30
2018-07-03T16:14:56.992Z,24.70
2018-07-03T16:17:25.364Z,24.20
2018-07-03T16:19:59.074Z,24.20
2018-07-03T16:22:27.486Z,24.70
2018-07-03T16:24:55.872Z,26.10
2018-07-03T16:29:52.297Z,26.10
2018-07-03T16:32:20.881Z,26.40
2018-07-03T16:34:49.768Z,25.80
2018-07-03T16:37:18.430Z,27.60
2018-07-03T16:39:46.769Z,27.80
2018-07-03T16:42:15.151Z,27.40
2018-07-03T16:44:43.571Z,27.60
2018-07-03T16:47:12.128Z,28.40
2018-07-03T16:49:40.574Z,28.50
2018-07-03T16:52:09.083Z,28.40
2018-07-03T16:54:37.465Z,28.10
2018-07-03T16:57:06.860Z,27.90
2018-07-03T16:59:35.250Z,27.80
2018-07-03T17:02:03.573Z,29.30
2018-07-03T17:04:31.883Z,28.20
2018-07-03T17:07:00.232Z,27.70
2018-07-03T17:09:28.553Z,28.00
2018-07-03T17:11:56.935Z,29.10
2018-07-03T17:14:25.216Z,28.80
2018-07-03T17:16:53.507Z,29.30
2018-07-03T17:19:27.172Z,29.30
2018-07-03T17:21:55.534Z,29.20
2018-07-03T17:24:23.925Z,28.70
2018-07-03T17:26:52.335Z,28.80
2018-07-03T17:29:20.763Z,28.70
2018-07-03T17:31:49.235Z,28.50
2018-07-03T17:34:17.551Z,28.90
2018-07-03T17:39:20.459Z,29.40
2018-07-03T17:42:00.123Z,28.90
2018-07-03T17:45:40.664Z,29.00
2018-07-03T17:48:10.108Z,29.90
2018-07-03T17:50:38.391Z,29.70
2018-07-03T17:53:06.935Z,30.20
2018-07-03T17:55:35.452Z,30.20
2018-07-03T17:58:03.695Z,30.50
2018-07-03T18:00:32.092Z,30.30
2018-07-03T18:03:00.853Z,30.60
2018-07-03T18:05:30.000Z,30.80
2018-07-03T18:07:58.793Z,31.20
2018-07-03T18:10:27.285Z,31.50
2018-07-03T18:12:55.680Z,32.00
2018-07-03T18:15:24.078Z,31.80
2018-07-03T18:17:52.355Z,31.80
2018-07-03T18:20:20.644Z,32.10
2018-07-03T18:22:48.998Z,32.50
2018-07-03T18:25:17.759Z,32.70
2018-07-03T18:27:46.060Z,32.70
2018-07-03T18:30:14.369Z,33.00
2018-07-03T18:32:42.832Z,33.60
2018-07-03T18:35:11.200Z,33.70
2018-07-03T18:37:39.467Z,34.00
2018-07-03T18:40:07.869Z,34.70
2018-07-03T18:42:36.149Z,34.90
2018-07-03T18:45:04.935Z,35.20
2018-07-03T18:47:33.210Z,35.10
2018-07-03T18:50:01.659Z,35.00
2018-07-03T18:52:29.905Z,35.00
2018-07-03T18:54:58.449Z,34.90
2018-07-03T18:57:26.766Z,34.80
2018-07-03T18:59:55.021Z,34.80
2018-07-03T19:02:23.365Z,34.70
2018-07-03T19:04:51.702Z,34.80
2018-07-03T19:07:19.947Z,34.80
2018-07-03T19:09:48.291Z,34.80
2018-07-03T19:12:17.043Z,34.90
2018-07-03T19:14:45.379Z,35.10
2018-07-03T19:17:13.773Z,36.50
2018-07-03T19:19:42.236Z,36.70
2018-07-03T19:22:10.509Z,36.90
2018-07-03T19:24:38.782Z,37.40
2018-07-03T19:27:07.684Z,37.30
2018-07-03T19:29:36.016Z,38.10
2018-07-03T19:32:04.301Z,38.50
2018-07-03T19:34:32.579Z,39.80
2018-07-03T19:37:00.880Z,40.60
2018-07-03T19:39:29.204Z,41.00
2018-07-03T19:41:57.570Z,41.20
2018-07-03T19:44:25.933Z,41.10
2018-07-03T19:46:54.207Z,41.00
2018-07-03T19:49:22.462Z,40.70
2018-07-03T19:51:50.769Z,41.60
2018-07-03T19:54:19.021Z,41.20
2018-07-03T19:56:47.294Z,41.20
2018-07-03T19:59:15.579Z,40.00
2018-07-03T20:01:43.835Z,39.60
2018-07-03T20:04:12.902Z,39.90
2018-07-03T20:06:41.228Z,40.00
2018-07-03T20:09:11.290Z,40.50
2018-07-03T20:11:39.617Z,40.10
2018-07-03T20:14:08.499Z,40.60
2018-07-03T20:16:36.940Z,40.80
2018-07-03T20:24:01.380Z,42.20
2018-07-03T20:26:29.640Z,41.80
2018-07-03T20:28:57.969Z,42.00
2018-07-03T20:31:26.362Z,42.20
2018-07-03T20:33:54.670Z,42.10
2018-07-03T20:36:22.927Z,42.40
2018-07-03T20:38:51.229Z,42.40
2018-07-03T20:41:19.477Z,42.20
2018-07-03T20:43:47.782Z,42.20
2018-07-03T20:46:16.065Z,42.90
2018-07-03T20:48:44.318Z,42.80
2018-07-03T20:51:13.152Z,43.10
2018-07-03T20:53:41.412Z,43.00
2018-07-03T20:56:09.760Z,43.10
2018-07-03T20:58:38.042Z,43.00
2018-07-03T21:01:06.494Z,42.90
2018-07-03T21:03:34.760Z,42.20
2018-07-03T21:06:04.148Z,42.10
2018-07-03T21:08:32.442Z,42.50
2018-07-03T21:11:00.699Z,42.90
2018-07-03T21:13:28.987Z,42.90
2018-07-03T21:15:57.227Z,43.00
2018-07-03T21:18:25.652Z,43.50
2018-07-03T21:20:53.989Z,43.90
2018-07-03T21:23:22.282Z,44.20
2018-07-03T21:25:50.580Z,44.10
2018-07-03T21:28:19.598Z,43.90
2018-07-03T21:30:47.856Z,43.80
2018-07-03T21:33:16.168Z,43.90
2018-07-03T21:35:44.642Z,43.90
2018-07-03T21:38:12.962Z,44.10
2018-07-03T21:40:41.199Z,44.70
2018-07-03T21:43:09.459Z,44.60
2018-07-03T21:45:37.749Z,44.80
2018-07-03T21:48:06.005Z,45.00
2018-07-03T21:50:34.201Z,45.40
2018-07-03T21:53:02.473Z,45.50
2018-07-03T21:55:30.747Z,45.60
2018-07-03T22:00:34.081Z,45.70
2018-07-03T22:03:02.687Z,45.90
2018-07-03T22:05:31.081Z,46.10
2018-07-03T22:07:59.494Z,46.40
2018-07-03T22:12:55.787Z,46.20
2018-07-03T22:15:24.301Z,46.40
2018-07-03T22:17:52.600Z,46.70
2018-07-03T22:20:20.902Z,46.30
2018-07-03T22:22:49.127Z,46.50
2018-07-03T22:25:17.837Z,46.80
2018-07-03T22:27:46.076Z,46.70
2018-07-03T22:30:14.331Z,46.80
2018-07-03T22:32:42.706Z,46.80
2018-07-03T22:35:11.044Z,46.80
2018-07-03T22:37:39.277Z,46.90
2018-07-03T22:42:35.658Z,47.10
2018-07-03T22:45:04.008Z,46.90
2018-07-03T22:47:32.303Z,47.40
2018-07-03T22:50:00.604Z,47.10
2018-07-03T22:52:29.631Z,46.90
2018-07-03T22:54:57.836Z,47.60
2018-07-03T22:57:26.148Z,48.00
2018-07-03T22:59:54.485Z,47.80
2018-07-03T23:02:22.795Z,47.90
2018-07-03T23:07:19.157Z,47.90
2018-07-03T23:09:47.511Z,47.90
2018-07-03T23:12:18.748Z,47.90
2018-07-03T23:14:48.031Z,47.50
2018-07-03T23:17:16.436Z,47.70
2018-07-03T23:19:45.692Z,47.40
2018-07-03T23:22:14.005Z,47.40
2018-07-03T23:24:42.969Z,47.60
2018-07-03T23:27:11.580Z,48.00
2018-07-03T23:29:39.955Z,48.10
2018-07-03T23:32:08.328Z,48.10
2018-07-03T23:34:38.100Z,47.70
2018-07-03T23:37:06.392Z,47.70
2018-07-03T23:39:34.677Z,47.50
2018-07-03T23:42:02.893Z,47.70
2018-07-03T23:44:31.192Z,47.90
2018-07-03T23:47:10.860Z,48.20
2018-07-03T23:49:50.724Z,48.00
2018-07-03T23:52:30.433Z,47.70
2018-07-03T23:55:10.077Z,47.70
2018-07-03T23:57:49.985Z,48.00
